Bogota, Colombia
Current Conditions -  °F | °C
As of 9:00 PM on Monday 20 Oct 2014 (Local Time) from SKBO Reporting Station
Rain Showers Rain Showers  
Wind Chill: 55°   Ceiling: Unl
Heat Index: 55°   Visibility: 6mi
Dew Point: 50°   Wind: 2mph
Humidity: 82%   Direction: NA
Pressure: 30.35"   Gusts: NA
Location:  4.63°N, 74.09°W
Report Text: SKBO 210200Z VRB02KT 9999 VCSH SCT020 SCT080 13/10 A3035 RMKVCSH/SE
Loading
Personal Weather Stations






























Interactive Weather Map
Tropical Storm Tracking
New forecast layout! Learn more

10-Day Weather Forecast

Advertisements
Track Severe Weather on mobile